Preview an experimental upcoming version of this site at Beta.AviationWeather.gov

METAR Data
IDs: Format: Raw Decoded Include TAF

Data at: 1611 UTC 21 Sep 2023

METAR for:KDBQ (Dubuque Rgnl, IA, US)
Text:KDBQ 211553Z 13006KT 10SM OVC100 21/16 A3020 RMK AO2 SLP223 T02060156 $
Temperature: 20.6°C ( 69°F)
Dewpoint: 15.6°C ( 60°F) [RH = 73%]
Pressure (altimeter):30.20 inches Hg (1022.8 mb) [Sea level pressure: 1022.3 mb]
Winds:from the SE (130 degrees) at 7 MPH (6 knots; 3.1 m/s)
Visibility:10 or more sm (16+ km)
Ceiling:10000 feet AGL
Clouds: overcast cloud deck at 10000 feet AGL
QC Flag:SOME DATA ABOVE MAY BE INACCURATE!!!"$" is an indication the sensor requires maintenance.